sensor_id;sensor_type;location;lat;lon;timestamp;temperature;humidity
2391;DHT22;22957;50.824;4.360;2022-08-11T00:01:14;23.30;97.10
2391;DHT22;22957;50.824;4.360;2022-08-11T00:03:52;23.20;97.20
2391;DHT22;22957;50.824;4.360;2022-08-11T00:06:28;23.40;97.10
2391;DHT22;22957;50.824;4.360;2022-08-11T00:08:54;23.30;97.00
2391;DHT22;22957;50.824;4.360;2022-08-11T00:11:21;23.10;97.30
2391;DHT22;22957;50.824;4.360;2022-08-11T00:13:56;23.00;98.00
2391;DHT22;22957;50.824;4.360;2022-08-11T00:16:24;22.90;98.10
2391;DHT22;22957;50.824;4.360;2022-08-11T00:18:55;23.00;98.20
2391;DHT22;22957;50.824;4.360;2022-08-11T00:21:23;23.20;98.10
2391;DHT22;22957;50.824;4.360;2022-08-11T00:24:00;23.10;98.00
2391;DHT22;22957;50.824;4.360;2022-08-11T00:26:28;23.50;97.30
2391;DHT22;22957;50.824;4.360;2022-08-11T00:28:55;23.10;97.80
2391;DHT22;22957;50.824;4.360;2022-08-11T00:31:30;22.90;98.60
2391;DHT22;22957;50.824;4.360;2022-08-11T00:34:00;22.80;98.90
2391;DHT22;22957;50.824;4.360;2022-08-11T00:36:49;22.70;98.90
2391;DHT22;22957;50.824;4.360;2022-08-11T00:39:19;22.60;99.30
2391;DHT22;22957;50.824;4.360;2022-08-11T00:42:25;22.60;99.40
2391;DHT22;22957;50.824;4.360;2022-08-11T00:53:48;22.60;99.60
2391;DHT22;22957;50.824;4.360;2022-08-11T01:02:17;22.30;99.90
2391;DHT22;22957;50.824;4.360;2022-08-11T01:43:46;21.80;99.90
2391;DHT22;22957;50.824;4.360;2022-08-11T01:51:59;21.70;99.90
2391;DHT22;22957;50.824;4.360;2022-08-11T01:57:33;21.60;99.90
2391;DHT22;22957;50.824;4.360;2022-08-11T02:00:07;21.50;99.90
2391;DHT22;22957;50.824;4.360;2022-08-11T02:06:52;21.40;99.90
2391;DHT22;22957;50.824;4.360;2022-08-11T02:09:42;21.30;99.90
2391;DHT22;22957;50.824;4.360;2022-08-11T02:12:45;21.30;99.90
2391;DHT22;22957;50.824;4.360;2022-08-11T02:15:32;21.30;99.90
2391;DHT22;22957;50.824;4.360;2022-08-11T02:18:23;21.30;99.90
2391;DHT22;22957;50.824;4.360;2022-08-11T02:21:11;21.20;99.90
2391;DHT22;22957;50.824;4.360;2022-08-11T02:24:04;21.20;99.90
2391;DHT22;22957;50.824;4.360;2022-08-11T02:26:40;21.10;99.90
2391;DHT22;22957;50.824;4.360;2022-08-11T02:29:17;21.00;99.90
2391;DHT22;22957;50.824;4.360;2022-08-11T02:32:38;21.00;99.90
2391;DHT22;22957;50.824;4.360;2022-08-11T02:35:15;21.00;99.90
2391;DHT22;22957;50.824;4.360;2022-08-11T02:40:49;21.00;99.90
2391;DHT22;22957;50.824;4.360;2022-08-11T02:43:39;20.80;99.90
2391;DHT22;22957;50.824;4.360;2022-08-11T02:46:31;20.80;99.90
2391;DHT22;22957;50.824;4.360;2022-08-11T02:54:43;20.70;99.90
2391;DHT22;22957;50.824;4.360;2022-08-11T02:57:27;20.40;99.90
2391;DHT22;22957;50.824;4.360;2022-08-11T03:00:14;20.50;99.90
2391;DHT22;22957;50.824;4.360;2022-08-11T03:08:56;20.70;99.90
2391;DHT22;22957;50.824;4.360;2022-08-11T03:11:44;20.50;99.90
2391;DHT22;22957;50.824;4.360;2022-08-11T03:18:03;20.40;99.90
2391;DHT22;22957;50.824;4.360;2022-08-11T03:21:06;20.40;99.90
2391;DHT22;22957;50.824;4.360;2022-08-11T03:23:49;20.40;99.90
2391;DHT22;22957;50.824;4.360;2022-08-11T03:29:31;20.30;99.90
2391;DHT22;22957;50.824;4.360;2022-08-11T03:32:33;20.30;99.90
2391;DHT22;22957;50.824;4.360;2022-08-11T03:35:03;20.30;99.90
2391;DHT22;22957;50.824;4.360;2022-08-11T03:37:54;20.30;99.90
2391;DHT22;22957;50.824;4.360;2022-08-11T03:40:51;20.20;99.90
2391;DHT22;22957;50.824;4.360;2022-08-11T03:46:13;20.20;99.90
2391;DHT22;22957;50.824;4.360;2022-08-11T03:52:10;20.30;99.90
2391;DHT22;22957;50.824;4.360;2022-08-11T03:55:31;20.20;99.90
2391;DHT22;22957;50.824;4.360;2022-08-11T04:15:22;20.10;99.90
2391;DHT22;22957;50.824;4.360;2022-08-11T04:43:30;19.80;99.90
2391;DHT22;22957;50.824;4.360;2022-08-11T04:54:23;19.90;99.90
2391;DHT22;22957;50.824;4.360;2022-08-11T05:00:00;20.60;99.90
2391;DHT22;22957;50.824;4.360;2022-08-11T05:09:20;20.80;99.90
2391;DHT22;22957;50.824;4.360;2022-08-11T05:14:31;21.00;99.90
2391;DHT22;22957;50.824;4.360;2022-08-11T05:17:33;21.10;99.90
2391;DHT22;22957;50.824;4.360;2022-08-11T05:20:20;20.90;99.90
2391;DHT22;22957;50.824;4.360;2022-08-11T05:23:08;21.30;99.90
2391;DHT22;22957;50.824;4.360;2022-08-11T05:36:37;21.30;99.90
2391;DHT22;22957;50.824;4.360;2022-08-11T05:39:18;21.50;99.90
2391;DHT22;22957;50.824;4.360;2022-08-11T05:42:08;21.60;99.90
2391;DHT22;22957;50.824;4.360;2022-08-11T05:44:58;21.70;99.90
2391;DHT22;22957;50.824;4.360;2022-08-11T05:47:48;21.40;99.90
2391;DHT22;22957;50.824;4.360;2022-08-11T05:50:33;21.70;99.90
2391;DHT22;22957;50.824;4.360;2022-08-11T05:53:20;21.80;99.90
2391;DHT22;22957;50.824;4.360;2022-08-11T05:56:06;21.80;99.90
2391;DHT22;22957;50.824;4.360;2022-08-11T05:58:54;22.00;99.90
2391;DHT22;22957;50.824;4.360;2022-08-11T06:01:26;22.10;99.90
2391;DHT22;22957;50.824;4.360;2022-08-11T06:06:27;22.10;99.90
2391;DHT22;22957;50.824;4.360;2022-08-11T06:08:57;22.10;99.90
2391;DHT22;22957;50.824;4.360;2022-08-11T06:11:45;21.80;99.90
2391;DHT22;22957;50.824;4.360;2022-08-11T06:16:48;22.00;99.90
2391;DHT22;22957;50.824;4.360;2022-08-11T06:19:19;22.00;99.90
2391;DHT22;22957;50.824;4.360;2022-08-11T21:52:21;26.20;70.10
2391;DHT22;22957;50.824;4.360;2022-08-11T22:52:18;24.90;75.50
2391;DHT22;22957;50.824;4.360;2022-08-11T23:18:24;24.70;77.30
2391;DHT22;22957;50.824;4.360;2022-08-11T23:21:11;24.60;77.60
2391;DHT22;22957;50.824;4.360;2022-08-11T23:24:01;24.50;77.60
2391;DHT22;22957;50.824;4.360;2022-08-11T23:26:47;24.60;77.90
2391;DHT22;22957;50.824;4.360;2022-08-11T23:29:34;24.50;77.60
2391;DHT22;22957;50.824;4.360;2022-08-11T23:32:19;24.50;78.00
2391;DHT22;22957;50.824;4.360;2022-08-11T23:35:10;24.40;78.10
2391;DHT22;22957;50.824;4.360;2022-08-11T23:37:56;24.30;78.50
2391;DHT22;22957;50.824;4.360;2022-08-11T23:40:41;24.30;78.80
2391;DHT22;22957;50.824;4.360;2022-08-11T23:43:28;24.30;78.90
2391;DHT22;22957;50.824;4.360;2022-08-11T23:46:12;24.30;79.00
2391;DHT22;22957;50.824;4.360;2022-08-11T23:49:02;24.30;79.60
2391;DHT22;22957;50.824;4.360;2022-08-11T23:51:47;24.20;79.50
2391;DHT22;22957;50.824;4.360;2022-08-11T23:54:33;24.30;79.50
2391;DHT22;22957;50.824;4.360;2022-08-11T23:57:18;24.20;79.50
